Clifton, NJ (07012)

2:56 PM EST on January 26, 2015 (GMT -0500)
Rutgers Place | Change Station
CLOSE
Current Station
Personal Weather Station
Location: Bloomfield, NJ
Elevation: 180 ft
Nearby Weather Stations
Active Advisory: Blizzard Warning

Elev 180 ft 40.83 °N, 74.17 °W | Updated 4 seconds ago

Snow
Snow
21.2 °F
Feels Like 21 °F
N
0.0
Wind Variable Wind from East
Gusts 2.0 mph

Today
High -- | Low -- °F
--% Chance of Precip.
Yesterday
High -- | Low -- °F
Precip. -- in
7:12 AM 5:06 PM
Waxing Crescent, 46% visible
Pressure 29.88 in
Visibility 0.5 miles
Clouds
Windchill 21 °F
Dew Point 18 °F
Humidity 88%
Rainfall 0.00 in
Snow Depth Not available.
UV 0.0 out of 12
Pollen .10 out of 12
Air Quality Not available.
Flu Activity Not available.
METAR KTEB 261951Z 02007KT 1/2SM R06/3000V4000FT -SN BR VV003 M06/M08 A2987 RMK AO2 SLP116 P0004 T10561078

More Conditions Fewer Conditions

Pressure 29.88 in
Visibility 0.5 miles
Clouds
Windchill 21 °F
Dew Point 18 °F
Humidity 88%
Rainfall 0.00 in
Snow Depth Not available.
UV 0.0 out of 12
Pollen .10 out of 12
Air Quality Not available.
Flu Activity Not available.
METAR KTEB 261951Z 02007KT 1/2SM R06/3000V4000FT -SN BR VV003 M06/M08 A2987 RMK AO2 SLP116 P0004 T10561078

More Conditions Fewer Conditions

10-Day Weather Forecast

Almanac

Astronomy

Jan. 26, 2015 Rise Set
Actual Time
Civil Twilight
Nautical Twilight
Astronomical Twilight
Moon
Length of Visible Light
Length of Day
Tomorrow will be .
, % of the Moon is Illuminated

Today's Extremes

State Highs State Lows

Community

WunderPhotos

Upload Photos

1,790,338 photos uploaded!

WunderBlogs® & News

Nearby

Air Quality

  Air Quality AQ Index Pollutant
Not available.

Snow Depth

Station Depth Elevation

Earthquake Activity

City Distance Mag. Time & Date
Minimum magnitude displayed is 2.5.

Coastal Water Temperatures

Place Temperature

Nearby Weather Stations